Time;durP1;ratioP1;P1;durP2;ratioP2;P2;SDS_P1;SDS_P2;PMS_P1;PMS_P2;Temp;Humidity;BMP_temperature;BMP_pressure;BME280_temperature;BME280_humidity;BME280_pressure;Samples;Min_cycle;Max_cycle;Signal;HPM_P1;HPM_P2
2022/02/28 00:01:48;;;;;;;;;;;;;;;1.26;53.63;99430.13;5031475;28;20361;-87
2022/02/28 00:04:18;;;;;;;;;;;;;;;1.33;53.52;99428.22;5047303;28;20326;-86
2022/02/28 00:06:47;;;;;;;;;;;;;;;1.33;53.62;99427.41;5048403;28;19940;-85
2022/02/28 00:09:40;;;;;;;;;;;;;;;1.63;52.56;99425.78;5028112;28;19928;-87
2022/02/28 00:12:15;;;;;;;;;;;;;;;1.74;52.19;99430.47;5048578;28;19932;-88
2022/02/28 00:14:45;;;;;;;;;;;;;;;1.63;52.81;99433.00;5031822;28;20004;-89
2022/02/28 00:17:13;;;;;;;;;;;;;;;1.73;52.26;99428.00;5029620;28;19929;-88
2022/02/28 00:19:41;;;;;;;;;;;;;;;1.66;52.68;99422.69;5048791;28;20418;-86
2022/02/28 00:22:09;;;;;;;;;;;;;;;1.66;52.55;99421.88;5028555;28;19956;-88
2022/02/28 00:24:37;;;;;;;;;;;;;;;1.84;51.80;99430.81;5047384;28;20019;-87
2022/02/28 00:27:06;;;;;;;;;;;;;;;1.77;52.04;99430.03;5029553;28;19931;-86
2022/02/28 00:29:33;;;;;;;;;;;;;;;1.57;52.96;99430.16;5032239;28;19924;-87
2022/02/28 00:32:05;;;;;;;;;;;;;;;1.75;52.68;99431.28;5048119;28;20053;-87
2022/02/28 00:34:34;;;;;;;;;;;;;;;1.73;52.47;99434.19;5047305;28;19951;-88
2022/02/28 00:37:04;;;;;;;;;;;;;;;1.69;52.24;99430.28;5048602;28;19924;-87
2022/02/28 00:39:32;;;;;;;;;;;;;;;1.58;52.19;99429.13;5047912;28;20013;-86
2022/02/28 00:42:00;;;;;;;;;;;;;;;1.53;52.95;99428.94;5027757;28;19929;-88
2022/02/28 00:44:28;;;;;;;;;;;;;;;1.71;52.17;99425.56;5047455;28;19932;-85
2022/02/28 00:46:56;;;;;;;;;;;;;;;1.63;52.24;99427.66;5049378;28;19932;-88
2022/02/28 00:49:26;;;;;;;;;;;;;;;1.73;52.27;99422.66;5047849;28;19925;-87
2022/02/28 00:51:55;;;;;;;;;;;;;;;1.48;53.15;99422.59;5047606;28;19954;-87
2022/02/28 00:54:23;;;;;;;;;;;;;;;1.48;53.26;99425.28;5047805;28;19933;-88
2022/02/28 00:56:51;;;;;;;;;;;;;;;1.46;53.47;99422.81;5047964;28;19990;-85
2022/02/28 00:59:19;;;;;;;;;;;;;;;1.61;52.73;99419.84;5031516;28;20287;-88
2022/02/28 01:01:47;;;;;;;;;;;;;;;1.64;52.72;99413.22;5014644;28;20354;-88
2022/02/28 01:04:15;;;;;;;;;;;;;;;1.57;52.99;99414.09;5034699;28;20024;-87
2022/02/28 01:06:45;;;;;;;;;;;;;;;1.84;52.09;99414.72;5050491;28;20006;-88
2022/02/28 01:09:38;;;;;;;;;;;;;;;1.64;52.46;99413.22;5053063;28;19925;-87
2022/02/28 01:12:07;;;;;;;;;;;;;;;1.68;52.37;99415.25;5052863;28;19976;-89
2022/02/28 01:14:35;;;;;;;;;;;;;;;1.45;53.05;99413.16;5049905;28;19975;-89
2022/02/28 01:17:03;;;;;;;;;;;;;;;1.64;52.70;99413.22;5052405;28;20295;-86
2022/02/28 01:19:32;;;;;;;;;;;;;;;1.77;51.96;99413.97;5032317;28;19933;-88
2022/02/28 01:22:01;;;;;;;;;;;;;;;1.69;52.35;99416.88;5031424;28;19975;-85
2022/02/28 01:24:29;;;;;;;;;;;;;;;1.48;52.68;99412.69;5034285;28;19932;-90
2022/02/28 01:26:57;;;;;;;;;;;;;;;1.36;53.11;99408.25;5053049;28;20391;-91
2022/02/28 01:29:25;;;;;;;;;;;;;;;1.29;53.41;99409.13;5051256;28;19960;-88
2022/02/28 01:31:53;;;;;;;;;;;;;;;1.48;52.80;99404.66;5035902;28;19933;-83
2022/02/28 01:34:20;;;;;;;;;;;;;;;1.39;52.89;99400.63;5050357;28;19931;-88
2022/02/28 01:36:48;;;;;;;;;;;;;;;1.48;52.88;99404.66;5061329;28;19967;-87
2022/02/28 01:39:21;;;;;;;;;;;;;;;1.48;53.14;99404.66;5061624;28;19932;-88
2022/02/28 01:41:49;;;;;;;;;;;;;;;1.41;53.49;99406.56;5061851;28;19936;-87
2022/02/28 01:44:17;;;;;;;;;;;;;;;1.38;53.03;99398.94;5059363;28;19931;-88
2022/02/28 01:46:45;;;;;;;;;;;;;;;1.30;53.32;99404.56;5041712;28;19932;-88
2022/02/28 01:49:13;;;;;;;;;;;;;;;1.34;53.18;99403.13;5053690;28;20545;-88
2022/02/28 01:51:41;;;;;;;;;;;;;;;1.16;53.73;99395.78;5033746;28;19933;-86
2022/02/28 01:54:10;;;;;;;;;;;;;;;1.11;54.21;99397.47;5033494;28;19928;-86
2022/02/28 01:56:39;;;;;;;;;;;;;;;1.04;54.00;99402.84;5050510;28;19968;-87
2022/02/28 01:59:07;;;;;;;;;;;;;;;1.04;54.11;99400.16;5035160;28;19933;-86
2022/02/28 02:01:35;;;;;;;;;;;;;;;1.06;54.32;99403.44;5052619;28;19932;-90
2022/02/28 02:04:05;;;;;;;;;;;;;;;1.28;53.56;99396.78;5053333;28;19972;-89
2022/02/28 02:06:34;;;;;;;;;;;;;;;1.42;53.02;99400.16;5049720;28;19932;-84
2022/02/28 02:09:03;;;;;;;;;;;;;;;1.37;53.28;99391.97;5033677;28;20398;-87
2022/02/28 02:11:31;;;;;;;;;;;;;;;1.45;52.89;99389.03;5054704;28;20375;-85
2022/02/28 02:14:00;;;;;;;;;;;;;;;1.15;53.77;99399.50;5032304;28;20010;-86
2022/02/28 02:16:28;;;;;;;;;;;;;;;0.96;54.59;99390.53;5036936;28;19979;-87
2022/02/28 02:18:57;;;;;;;;;;;;;;;0.91;54.94;99392.22;5053074;28;19933;-88
2022/02/28 02:21:26;;;;;;;;;;;;;;;1.15;54.21;99393.31;5037877;28;19924;-88
2022/02/28 02:23:54;;;;;;;;;;;;;;;1.00;54.57;99386.38;5050915;28;19990;-87
2022/02/28 02:26:22;;;;;;;;;;;;;;;1.03;54.76;99385.97;5050626;28;19931;-86
2022/02/28 02:28:49;;;;;;;;;;;;;;;1.16;54.08;99386.94;5033775;28;19925;-89
2022/02/28 02:31:17;;;;;;;;;;;;;;;1.17;54.18;99385.88;5048511;28;19974;-88
2022/02/28 02:33:47;;;;;;;;;;;;;;;0.94;54.60;99383.75;5035253;28;20363;-89
2022/02/28 02:36:18;;;;;;;;;;;;;;;1.05;54.53;99386.56;5033052;28;19929;-89
2022/02/28 02:38:50;;;;;;;;;;;;;;;0.85;55.10;99382.34;5032302;28;19933;-87
2022/02/28 02:41:18;;;;;;;;;;;;;;;0.96;54.68;99387.88;5033024;28;19925;-87
2022/02/28 02:43:46;;;;;;;;;;;;;;;0.72;55.71;99385.91;5030790;28;19934;-90
2022/02/28 02:46:18;;;;;;;;;;;;;;;0.68;55.35;99384.66;5033630;28;20062;-88
2022/02/28 02:49:00;;;;;;;;;;;;;;;0.81;55.11;99381.97;5032746;28;19929;-86
2022/02/28 02:51:29;;;;;;;;;;;;;;;0.66;55.65;99378.72;5016405;28;19947;-88
2022/02/28 02:53:58;;;;;;;;;;;;;;;0.63;56.24;99379.13;5031841;28;21193;-88
2022/02/28 02:56:27;;;;;;;;;;;;;;;0.70;55.45;99380.75;5031643;28;21593;-89
2022/02/28 02:58:55;;;;;;;;;;;;;;;0.94;54.63;99373.88;5048854;28;19925;-88
2022/02/28 03:01:23;;;;;;;;;;;;;;;0.98;54.25;99375.09;5048415;28;19994;-84
2022/02/28 03:03:51;;;;;;;;;;;;;;;0.72;55.42;99380.53;5047596;28;19929;-86
2022/02/28 03:06:24;;;;;;;;;;;;;;;0.81;55.44;99379.28;5049360;28;19928;-89
2022/02/28 03:08:51;;;;;;;;;;;;;;;0.81;55.44;99381.97;5046775;28;19932;-90
2022/02/28 03:11:23;;;;;;;;;;;;;;;0.75;55.51;99382.81;5033710;28;19929;-88
2022/02/28 03:13:51;;;;;;;;;;;;;;;0.63;55.92;99381.81;5031745;28;19937;-88
2022/02/28 03:16:20;;;;;;;;;;;;;;;0.68;55.86;99388.16;5032838;28;20383;-89
2022/02/28 03:18:48;;;;;;;;;;;;;;;0.63;55.69;99389.81;5045337;28;19932;-89
2022/02/28 03:21:18;;;;;;;;;;;;;;;0.74;55.35;99381.97;5018992;28;20391;-87
2022/02/28 03:23:46;;;;;;;;;;;;;;;0.63;55.83;99379.94;5048314;28;20015;-86
2022/02/28 03:26:15;;;;;;;;;;;;;;;0.66;55.85;99384.06;5048311;28;20371;-89
2022/02/28 03:28:44;;;;;;;;;;;;;;;0.52;56.31;99381.41;5047409;28;20366;-88
2022/02/28 03:31:12;;;;;;;;;;;;;;;0.70;55.58;99382.63;5030360;28;19929;-87
2022/02/28 03:33:41;;;;;;;;;;;;;;;0.61;56.02;99381.22;5049906;28;19932;-87
2022/02/28 03:36:09;;;;;;;;;;;;;;;0.50;56.70;99380.81;5030573;28;19925;-86
2022/02/28 03:38:43;;;;;;;;;;;;;;;0.71;55.86;99384.25;5027908;28;20403;-82
2022/02/28 03:41:11;;;;;;;;;;;;;;;0.76;55.61;99379.91;5031148;28;19925;-89
2022/02/28 03:43:40;;;;;;;;;;;;;;;0.76;55.37;99379.09;5026274;28;19940;-85
2022/02/28 03:46:13;;;;;;;;;;;;;;;0.78;55.32;99375.16;5030703;28;20449;-88
2022/02/28 03:49:04;;;;;;;;;;;;;;;0.76;55.77;99373.75;5009457;28;19995;-88
2022/02/28 03:52:11;;;;;;;;;;;;;;;0.74;55.60;99373.13;5026232;28;19925;-89
2022/02/28 03:55:00;;;;;;;;;;;;;;;0.73;56.06;99376.84;5009912;28;19925;-89
2022/02/28 03:57:29;;;;;;;;;;;;;;;0.69;55.81;99372.94;5011649;28;20360;-89
2022/02/28 04:00:02;;;;;;;;;;;;;;;0.37;56.49;99374.66;5042981;28;19992;-88
2022/02/28 04:02:40;;;;;;;;;;;;;;;0.27;57.39;99369.78;5027156;28;20391;-86
2022/02/28 04:05:09;;;;;;;;;;;;;;;0.40;56.77;99375.09;5024107;28;19932;-88
2022/02/28 04:07:39;;;;;;;;;;;;;;;0.61;56.15;99375.84;5026548;28;19925;-89
2022/02/28 04:10:07;;;;;;;;;;;;;;;0.33;56.73;99376.97;5029155;28;19933;-87
2022/02/28 04:12:41;;;;;;;;;;;;;;;0.31;57.25;99376.34;5010753;28;20379;-88
2022/02/28 04:15:09;;;;;;;;;;;;;;;0.35;57.01;99366.06;5010952;28;20282;-88
2022/02/28 04:17:38;;;;;;;;;;;;;;;0.21;57.58;99370.59;5016509;28;20449;-87
2022/02/28 04:20:26;;;;;;;;;;;;;;;0.08;57.70;99371.44;5028272;28;20015;-87
2022/02/28 04:22:54;;;;;;;;;;;;;;;-0.05;57.94;99371.47;5010351;28;20390;-87
2022/02/28 04:25:22;;;;;;;;;;;;;;;0.13;57.65;99371.66;5028661;28;20023;-88
2022/02/28 04:27:54;;;;;;;;;;;;;;;0.13;57.51;99374.31;5029388;28;19931;-86
2022/02/28 04:30:23;;;;;;;;;;;;;;;-0.15;58.52;99377.22;5010325;28;19941;-86
2022/02/28 04:32:51;;;;;;;;;;;;;;;0.15;57.87;99372.25;5026847;28;19929;-86
2022/02/28 04:35:19;;;;;;;;;;;;;;;0.22;57.42;99372.25;5025828;28;20442;-89
2022/02/28 04:40:51;;;;;;;;;;;;;;;0.38;56.83;99371.81;5009787;28;20016;-87
2022/02/28 04:43:19;;;;;;;;;;;;;;;0.25;57.38;99377.16;5025621;28;19932;-89
2022/02/28 04:45:50;;;;;;;;;;;;;;;0.36;57.24;99379.19;5027814;28;19925;-88
2022/02/28 04:48:18;;;;;;;;;;;;;;;0.44;56.83;99380.84;5024795;28;20032;-84
2022/02/28 04:51:12;;;;;;;;;;;;;;;0.36;57.16;99379.19;5027865;28;19936;-86
2022/02/28 04:53:41;;;;;;;;;;;;;;;0.22;57.67;99381.09;5024179;28;19932;-89
2022/02/28 04:56:09;;;;;;;;;;;;;;;0.35;56.95;99377.56;5025949;28;20028;-88
2022/02/28 04:58:38;;;;;;;;;;;;;;;0.35;57.21;99382.91;5009581;28;19925;-88
2022/02/28 05:01:20;;;;;;;;;;;;;;;0.32;57.40;99382.50;5012772;28;19937;-89
2022/02/28 05:03:50;;;;;;;;;;;;;;;0.15;57.89;99382.13;5009837;28;19925;-87
2022/02/28 05:06:23;;;;;;;;;;;;;;;0.11;57.79;99381.72;5008572;28;19925;-88
2022/02/28 05:08:54;;;;;;;;;;;;;;;0.10;57.88;99381.91;5010584;28;20276;-88
2022/02/28 05:11:23;;;;;;;;;;;;;;;0.24;57.50;99381.69;5026600;28;20267;-85
2022/02/28 05:13:51;;;;;;;;;;;;;;;0.14;58.08;99380.47;5009625;28;20387;-88
2022/02/28 05:16:19;;;;;;;;;;;;;;;0.26;57.47;99373.47;5028485;28;20011;-83
2022/02/28 05:18:47;;;;;;;;;;;;;;;0.21;57.08;99379.47;5027840;28;19991;-88
2022/02/28 05:21:15;;;;;;;;;;;;;;;0.28;57.38;99373.28;5022964;28;19926;-87
2022/02/28 05:23:46;;;;;;;;;;;;;;;0.16;57.79;99375.75;5026109;28;19933;-87
2022/02/28 05:26:18;;;;;;;;;;;;;;;0.14;58.07;99365.25;5025995;28;19929;-87
2022/02/28 05:28:46;;;;;;;;;;;;;;;0.21;57.93;99370.59;5026940;28;19925;-87
2022/02/28 05:31:13;;;;;;;;;;;;;;;0.25;57.67;99374.50;5025763;28;19929;-87
2022/02/28 05:33:44;;;;;;;;;;;;;;;0.22;57.99;99378.44;5023859;28;20012;-86
2022/02/28 05:36:13;;;;;;;;;;;;;;;0.35;57.41;99377.56;5026336;28;19961;-81
2022/02/28 05:38:46;;;;;;;;;;;;;;;0.20;57.96;99380.47;5024114;28;20023;-85
2022/02/28 05:41:19;;;;;;;;;;;;;;;0.22;57.97;99381.09;5025826;28;19933;-85
2022/02/28 05:43:53;;;;;;;;;;;;;;;0.22;58.14;99388.28;5028203;28;20060;-80
2022/02/28 05:46:21;;;;;;;;;;;;;;;0.28;57.56;99392.00;5025546;28;19926;-90
2022/02/28 05:49:01;;;;;;;;;;;;;;;0.14;57.74;99385.81;5034162;28;19928;-84
2022/02/28 05:51:34;;;;;;;;;;;;;;;0.17;57.76;99391.59;5026359;28;19937;-87
2022/02/28 05:54:02;;;;;;;;;;;;;;;0.23;57.93;99389.94;5030486;28;20395;-77
2022/02/28 05:56:32;;;;;;;;;;;;;;;0.50;56.83;99382.69;5029156;28;19968;-83
2022/02/28 05:59:25;;;;;;;;;;;;;;;0.38;57.52;99382.50;5027816;28;19925;-82
2022/02/28 06:01:53;;;;;;;;;;;;;;;0.35;57.65;99379.41;5010908;28;19994;-80
2022/02/28 06:04:21;;;;;;;;;;;;;;;0.40;57.32;99385.78;5028246;28;19936;-79
2022/02/28 06:06:49;;;;;;;;;;;;;;;0.36;56.93;99384.56;5030664;28;19925;-81
2022/02/28 06:09:18;;;;;;;;;;;;;;;0.12;57.90;99391.38;5030815;28;19933;-84
2022/02/28 06:11:50;;;;;;;;;;;;;;;0.42;57.11;99386.38;5032156;28;19925;-85
2022/02/28 06:14:20;;;;;;;;;;;;;;;0.39;57.44;99386.81;5030588;28;19925;-90
2022/02/28 06:16:49;;;;;;;;;;;;;;;0.39;57.35;99389.50;5019448;28;19935;-94
2022/02/28 06:19:20;;;;;;;;;;;;;;;0.31;57.76;99396.91;5043796;28;20394;-82
2022/02/28 06:21:48;;;;;;;;;;;;;;;0.25;57.69;99393.22;5027813;28;19931;-79
2022/02/28 06:24:17;;;;;;;;;;;;;;;0.14;57.99;99402.69;5024577;28;19931;-81
2022/02/28 06:26:44;;;;;;;;;;;;;;;0.30;57.75;99398.75;4996462;28;19929;-81
2022/02/28 06:29:14;;;;;;;;;;;;;;;0.18;58.07;99403.91;4993865;28;20455;-79
2022/02/28 06:31:44;;;;;;;;;;;;;;;0.35;57.64;99401.63;5033462;28;19925;-84
2022/02/28 06:34:12;;;;;;;;;;;;;;;0.42;57.84;99404.28;5030164;28;20327;-87
2022/02/28 06:36:40;;;;;;;;;;;;;;;0.44;57.73;99418.28;5012500;28;20053;-83
2022/02/28 06:39:10;;;;;;;;;;;;;;;0.51;57.57;99413.72;5028491;28;19983;-84
2022/02/28 06:41:38;;;;;;;;;;;;;;;0.66;56.92;99421.50;5028101;28;20005;-82
2022/02/28 06:44:06;;;;;;;;;;;;;;;0.66;57.12;99414.31;5010106;28;19929;-82
2022/02/28 06:46:36;;;;;;;;;;;;;;;0.78;56.25;99419.81;5025815;28;19933;-81
2022/02/28 06:49:04;;;;;;;;;;;;;;;0.60;57.32;99414.34;5028472;28;19932;-82
2022/02/28 06:51:32;;;;;;;;;;;;;;;0.73;56.80;99422.31;5028850;28;19932;-82
2022/02/28 06:54:00;;;;;;;;;;;;;;;0.65;56.74;99428.72;5031536;28;19936;-81
2022/02/28 06:56:31;;;;;;;;;;;;;;;0.59;57.19;99434.91;5010973;28;19974;-82
2022/02/28 06:58:58;;;;;;;;;;;;;;;0.50;57.69;99433.47;5028349;28;20384;-82
2022/02/28 07:01:27;;;;;;;;;;;;;;;0.61;57.86;99440.03;5029235;28;19978;-88
2022/02/28 07:04:07;;;;;;;;;;;;;;;0.69;57.04;99442.47;5026935;28;20072;-83
2022/02/28 07:06:35;;;;;;;;;;;;;;;0.60;57.72;99443.75;5030572;28;20295;-82
2022/02/28 07:09:04;;;;;;;;;;;;;;;0.65;57.43;99443.94;5030802;28;19952;-82
2022/02/28 07:11:31;;;;;;;;;;;;;;;0.60;57.05;99454.44;5028290;28;20364;-82
2022/02/28 07:13:59;;;;;;;;;;;;;;;0.75;57.07;99441.66;5030498;28;19932;-84
2022/02/28 07:16:27;;;;;;;;;;;;;;;1.04;55.93;99445.66;5029394;28;19925;-82
2022/02/28 07:18:55;;;;;;;;;;;;;;;1.13;55.40;99443.59;5031674;28;19925;-90
2022/02/28 07:21:25;;;;;;;;;;;;;;;1.26;55.02;99451.53;5027442;28;19964;-79
2022/02/28 07:23:57;;;;;;;;;;;;;;;1.30;55.16;99448.22;5025920;28;19937;-81
2022/02/28 07:26:25;;;;;;;;;;;;;;;1.25;54.96;99447.22;5028622;28;20387;-80
2022/02/28 07:28:53;;;;;;;;;;;;;;;1.45;54.52;99447.13;5029094;28;19943;-79
2022/02/28 07:31:34;;;;;;;;;;;;;;;1.38;54.89;99447.16;5025304;28;19931;-80
2022/02/28 07:34:02;;;;;;;;;;;;;;;1.33;55.34;99455.00;5024586;28;19956;-82
2022/02/28 07:36:32;;;;;;;;;;;;;;;1.46;54.99;99463.00;5033790;28;19933;-81
2022/02/28 07:38:59;;;;;;;;;;;;;;;1.29;55.50;99461.84;5025343;28;19936;-81
2022/02/28 07:41:27;;;;;;;;;;;;;;;1.52;55.19;99463.97;5030597;28;19929;-80
2022/02/28 07:43:55;;;;;;;;;;;;;;;1.64;54.48;99467.63;5026363;28;19925;-79
2022/02/28 07:46:23;;;;;;;;;;;;;;;1.73;54.44;99470.88;5028086;28;19971;-83
2022/02/28 07:48:51;;;;;;;;;;;;;;;1.80;54.13;99479.69;5026482;28;19925;-84
2022/02/28 07:54:38;;;;;;;;;;;;;;;1.89;53.81;99483.75;5024570;28;19925;-83
2022/02/28 07:57:06;;;;;;;;;;;;;;;2.03;53.71;99477.28;5023692;28;19972;-79
2022/02/28 07:59:34;;;;;;;;;;;;;;;2.04;53.82;99480.78;5027129;28;19933;-81
2022/02/28 08:02:02;;;;;;;;;;;;;;;2.02;53.57;99480.16;5028055;28;19925;-81
2022/02/28 08:04:29;;;;;;;;;;;;;;;2.18;53.63;99482.28;5028932;28;20284;-81
2022/02/28 08:06:59;;;;;;;;;;;;;;;2.35;53.13;99485.28;5029439;28;19925;-82
2022/02/28 08:09:26;;;;;;;;;;;;;;;2.56;52.06;99474.16;5026745;28;19941;-81
2022/02/28 08:11:54;;;;;;;;;;;;;;;2.54;52.01;99470.84;5026534;28;19933;-83
2022/02/28 08:14:22;;;;;;;;;;;;;;;2.07;52.79;99477.63;5009796;28;20015;-84
2022/02/28 08:16:50;;;;;;;;;;;;;;;2.18;54.11;99471.56;5030996;28;19932;-81
2022/02/28 08:19:18;;;;;;;;;;;;;;;2.39;53.13;99459.63;5026717;28;20303;-86
2022/02/28 08:21:47;;;;;;;;;;;;;;;2.54;52.41;99460.13;4987928;28;19971;-88
2022/02/28 08:24:17;;;;;;;;;;;;;;;2.69;51.32;99456.28;4994910;28;19929;-90
2022/02/28 08:26:45;;;;;;;;;;;;;;;2.84;51.24;99456.72;5025313;28;19932;-90
2022/02/28 08:29:13;;;;;;;;;;;;;;;2.82;50.98;99458.78;5007477;28;19926;-86
2022/02/28 08:31:42;;;;;;;;;;;;;;;3.07;50.61;99448.00;5014382;28;20016;-92
2022/02/28 08:34:10;;;;;;;;;;;;;;;2.85;51.81;99450.31;5032888;28;19925;-88
2022/02/28 08:36:39;;;;;;;;;;;;;;;2.95;51.01;99442.56;4994711;28;19924;-86
2022/02/28 08:39:07;;;;;;;;;;;;;;;3.21;50.46;99454.03;5013436;28;19952;-93
2022/02/28 08:41:37;;;;;;;;;;;;;;;3.08;50.91;99453.13;5019753;28;19929;-89
2022/02/28 08:44:07;;;;;;;;;;;;;;;3.39;50.68;99459.38;4992140;28;20087;-89
2022/02/28 08:47:01;;;;;;;;;;;;;;;3.50;50.04;99463.16;5025423;28;19929;-85
2022/02/28 08:49:29;;;;;;;;;;;;;;;3.39;50.59;99465.56;5026439;28;19937;-80
2022/02/28 08:51:57;;;;;;;;;;;;;;;3.58;50.25;99458.28;5024380;28;19939;-83
2022/02/28 08:54:25;;;;;;;;;;;;;;;3.52;49.71;99463.78;5009053;28;19933;-84
2022/02/28 08:56:54;;;;;;;;;;;;;;;3.61;49.72;99457.81;5011633;28;20375;-87
2022/02/28 08:59:23;;;;;;;;;;;;;;;3.75;49.46;99463.03;5027830;28;19933;-87
2022/02/28 09:01:50;;;;;;;;;;;;;;;3.53;49.97;99460.84;5027837;28;19929;-81
2022/02/28 09:04:19;;;;;;;;;;;;;;;3.90;49.88;99466.13;5028113;28;20374;-87
2022/02/28 09:06:48;;;;;;;;;;;;;;;4.23;47.77;99457.53;5011877;28;19925;-88
2022/02/28 09:09:16;;;;;;;;;;;;;;;4.22;47.89;99460.47;5027592;28;19932;-86
2022/02/28 09:11:44;;;;;;;;;;;;;;;4.31;47.68;99456.34;5027326;28;20332;-88
2022/02/28 09:14:13;;;;;;;;;;;;;;;4.02;47.79;99464.28;4994171;28;19980;-90
2022/02/28 09:16:41;;;;;;;;;;;;;;;4.32;48.03;99466.09;5028929;28;20372;-87
2022/02/28 09:19:09;;;;;;;;;;;;;;;4.38;47.12;99459.78;5026860;28;19925;-84
2022/02/28 09:21:39;;;;;;;;;;;;;;;4.53;47.46;99456.59;5030998;28;20406;-84
2022/02/28 09:24:07;;;;;;;;;;;;;;;4.25;46.01;99451.91;5031064;28;19925;-83
2022/02/28 09:26:38;;;;;;;;;;;;;;;4.04;46.36;99446.03;5014606;28;19925;-89
2022/02/28 09:29:09;;;;;;;;;;;;;;;4.15;46.70;99453.28;5010135;28;19932;-85
2022/02/28 09:31:38;;;;;;;;;;;;;;;4.52;46.22;99444.19;5031640;28;20638;-86
2022/02/28 09:34:06;;;;;;;;;;;;;;;4.76;45.54;99447.72;5030392;28;20383;-85
2022/02/28 09:36:34;;;;;;;;;;;;;;;4.95;45.12;99451.88;5031886;28;19931;-82
2022/02/28 09:39:04;;;;;;;;;;;;;;;4.78;44.55;99441.03;5008081;28;19933;-81
2022/02/28 09:41:57;;;;;;;;;;;;;;;5.15;45.42;99441.53;5036842;28;19929;-81
2022/02/28 09:44:54;;;;;;;;;;;;;;;5.15;43.73;99446.09;5007914;28;19948;-82
2022/02/28 09:47:34;;;;;;;;;;;;;;;5.23;43.16;99454.66;5007983;28;19925;-81
2022/02/28 09:50:41;;;;;;;;;;;;;;;5.47;42.63;99455.38;5030403;28;19933;-81
2022/02/28 09:53:32;;;;;;;;;;;;;;;5.74;42.88;99450.22;5029803;28;19944;-80
2022/02/28 09:56:15;;;;;;;;;;;;;;;5.60;42.16;99459.69;5027140;28;20283;-84
2022/02/28 09:59:03;;;;;;;;;;;;;;;5.79;41.95;99458.41;5030429;28;19968;-80
2022/02/28 10:01:53;;;;;;;;;;;;;;;5.78;42.04;99459.47;5020571;28;20311;-81
2022/02/28 10:04:24;;;;;;;;;;;;;;;5.73;42.15;99464.78;5032180;28;20372;-82
2022/02/28 10:06:51;;;;;;;;;;;;;;;5.97;41.96;99467.41;5028532;28;20027;-83
2022/02/28 10:09:20;;;;;;;;;;;;;;;6.26;41.38;99460.88;5030612;28;19925;-77
2022/02/28 10:11:49;;;;;;;;;;;;;;;6.18;41.27;99464.00;5026290;28;19933;-82
2022/02/28 10:14:17;;;;;;;;;;;;;;;6.16;41.14;99457.19;5032439;28;20012;-77
2022/02/28 10:16:45;;;;;;;;;;;;;;;6.29;41.10;99467.69;5026212;28;19925;-79
2022/02/28 10:19:14;;;;;;;;;;;;;;;6.26;40.33;99460.88;5010650;28;19933;-82
2022/02/28 10:21:44;;;;;;;;;;;;;;;6.41;40.39;99459.50;5029057;28;19928;-82
2022/02/28 10:24:12;;;;;;;;;;;;;;;6.67;39.84;99445.31;5031454;28;20024;-81
2022/02/28 10:27:08;;;;;;;;;;;;;;;6.64;40.59;99450.38;5010893;28;19960;-80
2022/02/28 10:29:57;;;;;;;;;;;;;;;6.59;39.11;99448.41;5008136;28;19926;-78
2022/02/28 10:32:47;;;;;;;;;;;;;;;6.65;38.20;99450.13;5029262;28;20515;-83
2022/02/28 10:38:38;;;;;;;;;;;;;;;6.35;39.44;99445.09;5029457;28;19925;-82
2022/02/28 10:41:13;;;;;;;;;;;;;;;6.80;38.28;99438.72;5032279;28;19925;-83
2022/02/28 10:43:42;;;;;;;;;;;;;;;7.01;38.49;99434.41;4987068;28;19988;-82
2022/02/28 10:46:14;;;;;;;;;;;;;;;7.11;37.57;99426.44;5020368;28;19938;-83
2022/02/28 10:49:02;;;;;;;;;;;;;;;7.20;35.86;99430.34;5006921;28;19934;-92
2022/02/28 10:51:55;;;;;;;;;;;;;;;7.37;36.33;99424.84;5014601;28;19932;-88
2022/02/28 10:54:25;;;;;;;;;;;;;;;7.30;35.46;99424.25;5014961;28;20064;-84
2022/02/28 10:56:54;;;;;;;;;;;;;;;7.06;36.63;99419.06;5015388;28;20392;-85
2022/02/28 11:03:09;;;;;;;;;;;;;;;6.52;36.01;99428.88;5012077;28;19925;-88
2022/02/28 11:06:29;;;;;;;;;;;;;;;7.00;35.20;99420.09;5009046;28;19929;-81
2022/02/28 11:09:04;;;;;;;;;;;;;;;6.75;35.34;99415.16;5011446;28;19952;-84
2022/02/28 11:12:03;;;;;;;;;;;;;;;7.15;35.42;99416.75;5011926;28;19937;-81
2022/02/28 11:14:53;;;;;;;;;;;;;;;6.81;34.75;99413.34;5012353;28;20462;-81
2022/02/28 11:20:11;;;;;;;;;;;;;;;7.23;34.45;99402.78;4948021;28;20016;-85
2022/02/28 11:22:51;;;;;;;;;;;;;;;7.14;33.31;99408.88;4976512;28;19990;-85
2022/02/28 11:30:18;;;;;;;;;;;;;;;7.22;30.88;99401.16;4873042;29;19935;-78
2022/02/28 11:39:01;;;;;;;;;;;;;;;7.23;26.62;99394.69;4877797;29;19930;-82
2022/02/28 11:45:23;;;;;;;;;;;;;;;7.56;28.39;99379.34;4838932;29;19965;-86
2022/02/28 11:48:52;;;;;;;;;;;;;;;7.66;28.20;99379.44;4925557;29;19958;-86
2022/02/28 11:52:04;;;;;;;;;;;;;;;8.01;27.31;99375.44;4919719;29;19934;-82
2022/02/28 11:55:21;;;;;;;;;;;;;;;7.74;28.04;99365.47;4887165;29;19939;-85
2022/02/28 12:02:00;;;;;;;;;;;;;;;8.44;29.70;99351.94;5034972;28;19940;-80
2022/02/28 12:04:32;;;;;;;;;;;;;;;8.64;28.22;99347.44;5043060;28;19936;-79
2022/02/28 12:07:02;;;;;;;;;;;;;;;8.78;29.38;99349.66;5044564;28;19925;-80
2022/02/28 12:09:39;;;;;;;;;;;;;;;8.80;29.27;99342.09;5042946;28;19925;-81
2022/02/28 12:12:15;;;;;;;;;;;;;;;8.71;28.69;99339.06;5034220;28;19929;-83
2022/02/28 12:15:04;;;;;;;;;;;;;;;8.83;29.91;99338.84;5015013;28;19949;-79
2022/02/28 12:17:59;;;;;;;;;;;;;;;8.15;29.80;99338.72;5028521;28;20125;-85
2022/02/28 12:20:28;;;;;;;;;;;;;;;8.10;30.40;99330.56;5027762;28;19929;-81
2022/02/28 12:23:12;;;;;;;;;;;;;;;8.42;30.36;99327.03;5026293;28;20060;-81
2022/02/28 12:25:43;;;;;;;;;;;;;;;8.71;31.06;99330.94;5027407;28;19925;-81
2022/02/28 12:28:21;;;;;;;;;;;;;;;8.28;32.59;99323.91;5028149;28;19926;-82
2022/02/28 12:30:52;;;;;;;;;;;;;;;8.59;30.68;99333.06;5023760;28;19925;-79
2022/02/28 12:33:26;;;;;;;;;;;;;;;8.89;30.88;99333.19;5025034;28;19925;-82
2022/02/28 12:35:57;;;;;;;;;;;;;;;8.33;31.50;99324.75;5025387;28;19971;-83
2022/02/28 12:38:26;;;;;;;;;;;;;;;8.55;31.43;99323.81;5010568;28;20446;-81
2022/02/28 12:40:54;;;;;;;;;;;;;;;8.68;31.36;99325.22;5025895;28;19925;-80
2022/02/28 12:43:22;;;;;;;;;;;;;;;8.90;31.18;99323.16;5024803;28;19978;-81
2022/02/28 12:49:09;;;;;;;;;;;;;;;8.95;31.59;99315.06;5030692;28;19932;-85
2022/02/28 12:51:37;;;;;;;;;;;;;;;8.74;31.61;99316.06;5027591;28;19940;-81
2022/02/28 12:54:06;;;;;;;;;;;;;;;8.95;32.61;99314.22;5010087;28;19929;-83
2022/02/28 12:56:39;;;;;;;;;;;;;;;9.18;32.32;99309.16;5025770;28;20376;-82
2022/02/28 12:59:07;;;;;;;;;;;;;;;9.18;31.57;99305.63;5028891;28;19929;-81
2022/02/28 13:01:36;;;;;;;;;;;;;;;8.65;32.92;99304.91;5024702;28;19932;-84
2022/02/28 13:04:09;;;;;;;;;;;;;;;8.97;32.40;99312.88;5017129;28;19931;-82
2022/02/28 13:06:38;;;;;;;;;;;;;;;9.02;32.06;99310.19;5031615;28;19925;-80
2022/02/28 13:09:09;;;;;;;;;;;;;;;8.85;32.58;99310.41;5031355;28;19926;-80
2022/02/28 13:11:37;;;;;;;;;;;;;;;8.62;33.00;99306.22;5030299;28;20531;-82
2022/02/28 13:14:06;;;;;;;;;;;;;;;8.75;33.47;99310.38;5034698;28;19948;-84
2022/02/28 13:16:37;;;;;;;;;;;;;;;9.00;33.00;99311.53;5027609;28;19939;-83
2022/02/28 13:19:11;;;;;;;;;;;;;;;8.97;31.47;99295.81;5031838;28;19955;-82
2022/02/28 13:21:39;;;;;;;;;;;;;;;9.18;32.60;99297.50;5028839;28;20399;-82
2022/02/28 13:24:08;;;;;;;;;;;;;;;8.69;32.72;99311.44;5030162;28;19951;-81
2022/02/28 13:26:36;;;;;;;;;;;;;;;9.05;32.22;99298.78;5029289;28;20327;-84
2022/02/28 13:29:04;;;;;;;;;;;;;;;9.09;31.67;99299.09;5029681;28;19937;-83
2022/02/28 13:31:34;;;;;;;;;;;;;;;9.21;32.08;99299.66;5026074;28;20303;-85
2022/02/28 13:34:06;;;;;;;;;;;;;;;8.85;32.57;99296.88;5028644;28;19983;-86
2022/02/28 13:36:38;;;;;;;;;;;;;;;8.56;33.12;99287.53;5031424;28;19932;-84
2022/02/28 13:39:06;;;;;;;;;;;;;;;8.47;32.19;99286.38;5028944;28;20388;-84
2022/02/28 13:41:39;;;;;;;;;;;;;;;8.47;32.12;99289.94;5011534;28;19933;-83
2022/02/28 13:44:09;;;;;;;;;;;;;;;8.36;31.99;99280.94;5027987;28;19980;-85
2022/02/28 13:46:38;;;;;;;;;;;;;;;8.65;31.90;99283.22;5016751;28;19926;-86
2022/02/28 13:49:06;;;;;;;;;;;;;;;8.58;30.68;99272.66;5011020;28;19925;-85
2022/02/28 13:51:44;;;;;;;;;;;;;;;8.65;32.48;99272.41;5011917;28;19972;-82
2022/02/28 13:54:37;;;;;;;;;;;;;;;8.57;30.34;99272.91;5009861;28;20351;-83
2022/02/28 13:57:13;;;;;;;;;;;;;;;8.81;29.77;99271.38;5010674;28;19930;-90
2022/02/28 13:59:41;;;;;;;;;;;;;;;8.90;31.21;99271.69;5010034;28;19925;-89
2022/02/28 14:02:10;;;;;;;;;;;;;;;8.98;31.29;99270.34;5022332;28;19988;-89